createdAt,value
2022-12-19T00:00:31.177Z,56.33
2022-12-19T00:04:48.384Z,57.78
2022-12-19T00:09:06.033Z,49.77
2022-12-19T00:13:23.829Z,47.35
2022-12-19T00:17:40.952Z,48.47
2022-12-19T00:21:58.053Z,47.27
2022-12-19T00:26:19.497Z,45.60
2022-12-19T00:30:36.664Z,43.38
2022-12-19T00:34:53.986Z,44.60
2022-12-19T00:39:11.695Z,45.03
2022-12-19T00:43:28.841Z,37.28
2022-12-19T00:47:45.939Z,38.13
2022-12-19T00:52:03.119Z,40.10
2022-12-19T00:56:23.083Z,39.60
2022-12-19T01:00:40.619Z,32.63
2022-12-19T01:04:59.416Z,31.88
2022-12-19T01:09:16.706Z,33.63
2022-12-19T01:13:35.740Z,36.92
2022-12-19T01:17:55.529Z,42.28
2022-12-19T01:22:13.610Z,44.10
2022-12-19T01:26:31.183Z,47.70
2022-12-19T01:30:48.416Z,44.73
2022-12-19T01:39:26.940Z,48.95
2022-12-19T01:44:00.425Z,49.83
2022-12-19T01:48:36.909Z,57.22
2022-12-19T01:52:55.173Z,51.03
2022-12-19T01:57:15.498Z,57.13
2022-12-19T02:01:32.724Z,52.58
2022-12-19T02:05:51.219Z,50.55
2022-12-19T02:10:08.623Z,51.13
2022-12-19T02:14:26.342Z,52.40
2022-12-19T02:18:57.741Z,44.50
2022-12-19T02:23:44.110Z,43.65
2022-12-19T02:28:01.160Z,41.13
2022-12-19T02:32:48.289Z,45.03
2022-12-19T02:37:27.104Z,42.63
2022-12-19T02:41:50.119Z,47.33
2022-12-19T02:46:09.260Z,40.90
2022-12-19T02:50:26.439Z,35.05
2022-12-19T02:54:45.213Z,43.40
2022-12-19T02:59:24.030Z,39.58
2022-12-19T03:04:04.372Z,37.45
2022-12-19T03:08:28.465Z,37.40
2022-12-19T03:13:00.965Z,39.75
2022-12-19T03:17:19.388Z,36.80
2022-12-19T03:21:41.052Z,30.92
2022-12-19T03:26:04.534Z,32.45
2022-12-19T03:30:22.062Z,34.28
2022-12-19T03:34:48.919Z,35.05
2022-12-19T03:39:08.984Z,35.50
2022-12-19T03:43:28.387Z,35.28
2022-12-19T03:47:50.916Z,31.13
2022-12-19T03:52:11.466Z,33.00
2022-12-19T03:56:40.453Z,33.97
2022-12-19T04:00:58.853Z,31.40
2022-12-19T04:05:23.607Z,32.17
2022-12-19T04:09:43.212Z,31.73
2022-12-19T04:14:08.787Z,30.40
2022-12-19T04:18:27.101Z,32.78
2022-12-19T04:22:59.347Z,28.02
2022-12-19T04:27:17.589Z,29.10
2022-12-19T04:31:36.501Z,35.50
2022-12-19T04:35:54.306Z,34.33
2022-12-19T04:40:12.240Z,37.70
2022-12-19T04:44:29.411Z,42.75
2022-12-19T04:48:46.654Z,38.03
2022-12-19T04:53:03.930Z,26.93
2022-12-19T04:57:21.335Z,29.43
2022-12-19T05:01:38.538Z,29.63
2022-12-19T05:06:14.787Z,32.27
2022-12-19T05:10:32.310Z,29.77
2022-12-19T05:14:49.505Z,47.95
2022-12-19T05:19:06.843Z,54.70
2022-12-19T05:23:24.661Z,46.43
2022-12-19T05:27:41.826Z,39.35
2022-12-19T05:31:58.989Z,42.90
2022-12-19T05:36:18.230Z,34.77
2022-12-19T05:40:35.377Z,30.98
2022-12-19T05:44:52.892Z,26.58
2022-12-19T05:49:10.061Z,29.48
2022-12-19T05:53:30.253Z,29.77
2022-12-19T05:57:47.391Z,27.83
2022-12-19T06:02:04.615Z,30.27
2022-12-19T06:06:26.066Z,45.53
2022-12-19T06:10:43.274Z,79.53
2022-12-19T06:15:00.416Z,62.45
2022-12-19T06:19:17.512Z,32.38
2022-12-19T06:23:37.583Z,27.52
2022-12-19T06:27:54.710Z,29.00
2022-12-19T06:32:11.976Z,28.25
2022-12-19T06:36:30.925Z,26.52
2022-12-19T06:41:06.895Z,29.42
2022-12-19T06:45:24.126Z,35.55
2022-12-19T06:49:41.286Z,23.30
2022-12-19T06:53:58.814Z,22.60
2022-12-19T06:58:18.173Z,22.07
2022-12-19T07:02:39.159Z,17.60
2022-12-19T07:06:57.616Z,27.23
2022-12-19T07:11:14.809Z,22.48
2022-12-19T07:15:34.596Z,21.77
2022-12-19T07:19:55.315Z,19.30
2022-12-19T07:24:14.837Z,18.80
2022-12-19T07:28:34.172Z,22.05
2022-12-19T07:32:51.350Z,18.67
2022-12-19T07:37:08.522Z,20.65
2022-12-19T07:41:25.635Z,20.02
2022-12-19T07:45:42.825Z,21.35
2022-12-19T07:50:00.059Z,28.10
2022-12-19T07:54:17.263Z,32.67
2022-12-19T07:58:34.355Z,47.10
2022-12-19T08:02:51.885Z,58.60
2022-12-19T08:07:09.082Z,27.17
2022-12-19T08:11:27.579Z,22.00
2022-12-19T08:15:44.806Z,21.67
2022-12-19T08:20:01.999Z,18.65
2022-12-19T08:24:19.165Z,20.00
2022-12-19T08:28:37.080Z,17.98
2022-12-19T08:32:54.205Z,21.45
2022-12-19T08:37:11.308Z,20.75
2022-12-19T08:41:28.432Z,28.50
2022-12-19T08:45:48.772Z,28.73
2022-12-19T08:50:06.896Z,18.52
2022-12-19T08:54:24.008Z,19.95
2022-12-19T08:58:41.434Z,18.35
2022-12-19T09:02:58.816Z,23.23
2022-12-19T09:07:16.583Z,20.73
2022-12-19T09:11:35.380Z,69.37
2022-12-19T09:16:19.451Z,37.05
2022-12-19T09:20:36.616Z,24.52
2022-12-19T09:24:53.777Z,25.25
2022-12-19T09:29:19.717Z,28.88
2022-12-19T09:33:43.431Z,23.38
2022-12-19T09:38:01.038Z,32.05
2022-12-19T09:42:35.094Z,35.20
2022-12-19T09:47:03.779Z,35.42
2022-12-19T09:51:35.713Z,52.83
2022-12-19T09:55:54.301Z,66.40
2022-12-19T10:00:19.323Z,60.50
2022-12-19T10:04:36.591Z,58.88
2022-12-19T10:10:01.037Z,36.33
2022-12-19T10:13:35.783Z,94.78
2022-12-19T10:18:13.044Z,44.67
2022-12-19T10:22:33.039Z,33.00
2022-12-19T10:26:53.196Z,27.25
2022-12-19T10:31:24.911Z,27.15
2022-12-19T10:35:44.318Z,29.42
2022-12-19T10:40:04.932Z,28.98
2022-12-19T10:44:30.011Z,31.98
2022-12-19T10:48:50.632Z,49.28
2022-12-19T10:53:11.379Z,37.67
2022-12-19T10:57:29.718Z,44.15
2022-12-19T11:01:48.631Z,31.58
2022-12-19T11:06:37.019Z,40.05
2022-12-19T11:11:43.511Z,39.10
2022-12-19T11:21:53.072Z,60.20
2022-12-19T11:27:31.765Z,77.47
2022-12-19T11:29:31.091Z,41.88
2022-12-19T11:34:26.673Z,42.25
2022-12-19T11:38:53.353Z,34.38
2022-12-19T11:43:46.219Z,34.30
2022-12-19T11:48:23.939Z,34.72
2022-12-19T11:53:04.427Z,43.45
2022-12-19T11:57:23.683Z,42.75
2022-12-19T12:02:13.579Z,60.08
2022-12-19T12:06:34.771Z,41.17
2022-12-19T12:17:59.622Z,42.17
2022-12-19T12:28:32.806Z,35.53
2022-12-19T12:31:20.324Z,37.65
2022-12-19T12:32:01.907Z,34.92
2022-12-19T12:41:02.297Z,31.63
2022-12-19T12:45:28.740Z,23.73
2022-12-19T12:50:00.543Z,33.13
2022-12-19T12:54:18.678Z,34.47
2022-12-19T12:58:42.123Z,24.60
2022-12-19T13:03:15.803Z,39.20
2022-12-19T13:07:50.139Z,53.85
2022-12-19T13:12:46.443Z,44.10
2022-12-19T13:17:11.644Z,92.50
2022-12-19T13:22:03.739Z,73.38
2022-12-19T13:26:42.812Z,55.03
2022-12-19T13:31:21.130Z,56.17
2022-12-19T13:39:48.727Z,27.33
2022-12-19T13:40:32.808Z,28.83
2022-12-19T13:44:51.987Z,32.90
2022-12-19T13:49:22.464Z,38.20
2022-12-19T13:53:43.031Z,35.28
2022-12-19T13:58:04.110Z,61.78
2022-12-19T14:02:30.443Z,32.80
2022-12-19T14:06:50.231Z,26.73
2022-12-19T14:11:40.839Z,36.95
2022-12-19T14:15:52.200Z,42.83
2022-12-19T14:21:31.336Z,44.38
2022-12-19T14:25:52.572Z,34.30
2022-12-19T14:30:27.579Z,41.38
2022-12-19T14:39:25.206Z,55.33
2022-12-19T14:43:56.612Z,96.18
2022-12-19T14:54:15.170Z,48.88
2022-12-19T14:54:34.888Z,67.33
2022-12-19T14:58:53.273Z,39.53
2022-12-19T15:02:43.560Z,50.63
2022-12-19T15:07:11.917Z,39.70
2022-12-19T15:16:30.303Z,25.55
2022-12-19T15:20:48.383Z,32.70
2022-12-19T15:25:06.025Z,28.80
2022-12-19T15:29:23.202Z,30.37
2022-12-19T15:33:53.867Z,42.08
2022-12-19T15:38:17.483Z,28.38
2022-12-19T15:42:34.816Z,32.35
2022-12-19T15:46:52.180Z,28.75
2022-12-19T15:51:13.169Z,32.15
2022-12-19T15:55:31.117Z,29.85
2022-12-19T15:59:48.407Z,22.85
2022-12-19T16:04:13.159Z,28.27
2022-12-19T16:08:31.531Z,25.42
2022-12-19T16:12:55.512Z,63.72
2022-12-19T16:17:19.102Z,48.60
2022-12-19T16:21:36.304Z,40.38
2022-12-19T16:25:53.559Z,27.02
2022-12-19T16:30:20.996Z,32.33
2022-12-19T16:34:38.449Z,26.20
2022-12-19T16:38:55.758Z,26.70
2022-12-19T16:43:22.283Z,19.25
2022-12-19T16:47:39.413Z,25.13
2022-12-19T16:51:56.541Z,23.73
2022-12-19T16:56:45.818Z,24.17
2022-12-19T17:01:03.732Z,28.70
2022-12-19T17:05:26.862Z,32.78
2022-12-19T17:09:43.986Z,27.13
2022-12-19T17:14:13.123Z,39.60
2022-12-19T17:18:33.964Z,36.33
2022-12-19T17:22:51.908Z,20.58
2022-12-19T17:27:09.101Z,25.20
2022-12-19T17:31:29.401Z,27.50
2022-12-19T17:35:47.302Z,31.98
2022-12-19T17:40:18.111Z,32.07
2022-12-19T17:44:35.232Z,27.42
2022-12-19T17:48:53.454Z,36.33
2022-12-19T17:53:13.933Z,77.22
2022-12-19T17:57:31.218Z,27.73
2022-12-19T18:01:48.687Z,25.60
2022-12-19T18:06:11.929Z,23.60
2022-12-19T18:10:31.526Z,22.33
2022-12-19T18:14:48.690Z,25.17
2022-12-19T18:19:06.428Z,21.60
2022-12-19T18:23:24.011Z,28.27
2022-12-19T18:27:41.127Z,20.50
2022-12-19T18:31:58.562Z,20.30
2022-12-19T18:36:21.814Z,23.27
2022-12-19T18:40:39.121Z,26.65
2022-12-19T18:44:56.264Z,21.77
2022-12-19T18:49:15.620Z,25.23
2022-12-19T18:53:35.806Z,20.45
2022-12-19T18:57:53.886Z,20.20
2022-12-19T19:02:26.556Z,23.77
2022-12-19T19:06:51.060Z,21.33
2022-12-19T19:11:09.696Z,20.33
2022-12-19T19:15:30.380Z,77.40
2022-12-19T19:19:47.630Z,104.20
2022-12-19T19:24:12.186Z,50.53
2022-12-19T19:28:29.632Z,50.17
2022-12-19T19:32:51.941Z,26.65
2022-12-19T19:37:12.490Z,27.92
2022-12-19T19:41:30.192Z,24.67
2022-12-19T19:45:47.444Z,24.57
2022-12-19T19:50:06.430Z,25.33
2022-12-19T19:54:23.533Z,25.23
2022-12-19T19:58:40.751Z,28.05
2022-12-19T20:02:58.001Z,22.88
2022-12-19T20:07:17.256Z,21.63
2022-12-19T20:11:34.584Z,18.92
2022-12-19T20:15:52.010Z,25.10
2022-12-19T20:20:09.710Z,37.40
2022-12-19T20:24:27.421Z,20.03
2022-12-19T20:28:49.534Z,23.00
2022-12-19T20:33:07.561Z,20.98
2022-12-19T20:37:25.331Z,21.42
2022-12-19T20:41:42.447Z,18.97
2022-12-19T20:46:20.170Z,19.85
2022-12-19T20:50:43.177Z,20.20
2022-12-19T20:55:00.675Z,20.85
2022-12-19T20:59:17.911Z,18.77
2022-12-19T21:03:36.499Z,15.68
2022-12-19T21:07:53.778Z,18.23
2022-12-19T21:12:11.927Z,17.38
2022-12-19T21:16:29.257Z,17.63
2022-12-19T21:20:46.705Z,15.20
2022-12-19T21:25:04.769Z,16.80
2022-12-19T21:29:22.073Z,16.38
2022-12-19T21:33:39.413Z,18.95
2022-12-19T21:37:56.544Z,17.75
2022-12-19T21:42:14.120Z,14.65
2022-12-19T21:46:35.670Z,14.77
2022-12-19T21:50:56.310Z,14.93
2022-12-19T21:55:13.590Z,15.57
2022-12-19T21:59:30.744Z,15.18
2022-12-19T22:03:48.160Z,15.43
2022-12-19T22:08:05.604Z,15.95
2022-12-19T22:12:22.925Z,16.55
2022-12-19T22:16:40.238Z,15.77
2022-12-19T22:20:59.746Z,18.77
2022-12-19T22:25:17.511Z,20.40
2022-12-19T22:29:36.572Z,21.30
2022-12-19T22:33:56.372Z,14.85
2022-12-19T22:38:13.470Z,19.50
2022-12-19T22:42:30.621Z,15.48
2022-12-19T22:46:48.496Z,16.60
2022-12-19T22:51:05.988Z,18.05
2022-12-19T22:55:23.100Z,18.90
2022-12-19T22:59:40.527Z,20.25
2022-12-19T23:03:59.520Z,18.50
2022-12-19T23:08:16.719Z,16.15
2022-12-19T23:12:33.858Z,17.60
2022-12-19T23:16:51.127Z,17.55
2022-12-19T23:21:22.497Z,18.15
2022-12-19T23:25:40.929Z,21.02
2022-12-19T23:34:16.433Z,19.63
2022-12-19T23:42:50.716Z,23.08
2022-12-19T23:47:07.949Z,21.15
2022-12-19T23:51:26.625Z,20.40
2022-12-19T23:55:43.771Z,22.38
